Hiawassee, Florida
Current Conditions -  °F | °C
As of 8:53 AM on Friday 28 Nov 2014 (Local Time) from KORL Reporting Station
Clear Clear  
Wind Chill: 42°   Ceiling: Unl
Heat Index: 47°   Visibility: 10mi
Dew Point: 36°   Wind: 10mph
Humidity: 66%   Direction: 350°N
Pressure: 30.33"   Gusts: NA
Location:  28.5867°N, 81.4891°W
Report Text: KORL 281353Z 35009KT 10SM CLR 08/02 A3033 RMK AO2 SLP276 T00830022
Loading
Personal Weather Stations






























Interactive Weather Map New forecast layout! Learn more

10-Day Weather Forecast

Advertisements
Track Severe Weather on mobile